sensor_id;sensor_type;location;lat;lon;timestamp;P1;durP1;ratioP1;P2;durP2;ratioP2
305;SDS011;137;48.578;9.180;2022-12-24T00:01:27;1.30;;;1.00;;
305;SDS011;137;48.578;9.180;2022-12-24T00:03:55;6.30;;;1.80;;
305;SDS011;137;48.578;9.180;2022-12-24T00:06:22;2.30;;;1.00;;
305;SDS011;137;48.578;9.180;2022-12-24T00:08:49;3.30;;;1.40;;
305;SDS011;137;48.578;9.180;2022-12-24T00:11:17;3.37;;;1.33;;
305;SDS011;137;48.578;9.180;2022-12-24T00:13:44;2.40;;;1.10;;
305;SDS011;137;48.578;9.180;2022-12-24T00:16:11;2.13;;;1.00;;
305;SDS011;137;48.578;9.180;2022-12-24T00:18:42;2.57;;;1.00;;
305;SDS011;137;48.578;9.180;2022-12-24T00:21:10;2.40;;;1.30;;
305;SDS011;137;48.578;9.180;2022-12-24T00:23:37;4.60;;;1.93;;
305;SDS011;137;48.578;9.180;2022-12-24T00:26:05;2.20;;;0.90;;
305;SDS011;137;48.578;9.180;2022-12-24T00:28:32;2.60;;;1.30;;
305;SDS011;137;48.578;9.180;2022-12-24T00:30:58;2.10;;;0.90;;
305;SDS011;137;48.578;9.180;2022-12-24T00:33:25;4.43;;;1.47;;
305;SDS011;137;48.578;9.180;2022-12-24T00:35:52;5.47;;;1.13;;
305;SDS011;137;48.578;9.180;2022-12-24T00:38:20;2.43;;;1.27;;
305;SDS011;137;48.578;9.180;2022-12-24T00:40:47;2.13;;;1.30;;
305;SDS011;137;48.578;9.180;2022-12-24T00:43:13;4.17;;;1.30;;
305;SDS011;137;48.578;9.180;2022-12-24T00:45:40;2.30;;;1.10;;
305;SDS011;137;48.578;9.180;2022-12-24T00:48:07;1.50;;;1.10;;
305;SDS011;137;48.578;9.180;2022-12-24T00:50:34;3.60;;;1.53;;
305;SDS011;137;48.578;9.180;2022-12-24T00:53:00;3.33;;;1.00;;
305;SDS011;137;48.578;9.180;2022-12-24T00:55:28;2.33;;;1.00;;
305;SDS011;137;48.578;9.180;2022-12-24T00:57:55;3.00;;;1.67;;
305;SDS011;137;48.578;9.180;2022-12-24T01:00:22;1.73;;;1.10;;
305;SDS011;137;48.578;9.180;2022-12-24T01:02:49;1.97;;;1.73;;
305;SDS011;137;48.578;9.180;2022-12-24T01:05:16;3.83;;;2.10;;
305;SDS011;137;48.578;9.180;2022-12-24T01:07:44;2.73;;;1.40;;
305;SDS011;137;48.578;9.180;2022-12-24T01:10:13;3.20;;;1.30;;
305;SDS011;137;48.578;9.180;2022-12-24T01:12:42;4.90;;;1.37;;
305;SDS011;137;48.578;9.180;2022-12-24T01:15:10;4.30;;;1.30;;
305;SDS011;137;48.578;9.180;2022-12-24T01:17:38;5.47;;;1.40;;
305;SDS011;137;48.578;9.180;2022-12-24T01:20:06;2.67;;;1.10;;
305;SDS011;137;48.578;9.180;2022-12-24T01:22:34;2.80;;;1.07;;
305;SDS011;137;48.578;9.180;2022-12-24T01:25:01;2.53;;;1.10;;
305;SDS011;137;48.578;9.180;2022-12-24T01:27:28;5.30;;;1.43;;
305;SDS011;137;48.578;9.180;2022-12-24T01:29:56;2.70;;;1.30;;
305;SDS011;137;48.578;9.180;2022-12-24T01:32:23;4.60;;;1.40;;
305;SDS011;137;48.578;9.180;2022-12-24T01:34:49;4.00;;;1.30;;
305;SDS011;137;48.578;9.180;2022-12-24T01:37:16;3.70;;;1.30;;
305;SDS011;137;48.578;9.180;2022-12-24T01:39:43;4.20;;;1.87;;
305;SDS011;137;48.578;9.180;2022-12-24T01:42:17;4.13;;;1.10;;
305;SDS011;137;48.578;9.180;2022-12-24T01:48:06;3.10;;;1.33;;
305;SDS011;137;48.578;9.180;2022-12-24T01:50:41;6.20;;;1.30;;
305;SDS011;137;48.578;9.180;2022-12-24T01:53:08;14.03;;;1.63;;
305;SDS011;137;48.578;9.180;2022-12-24T01:55:36;2.90;;;1.30;;
305;SDS011;137;48.578;9.180;2022-12-24T01:58:03;3.47;;;1.50;;
305;SDS011;137;48.578;9.180;2022-12-24T02:00:32;2.40;;;1.80;;
305;SDS011;137;48.578;9.180;2022-12-24T02:03:01;2.63;;;2.03;;
305;SDS011;137;48.578;9.180;2022-12-24T02:05:28;4.20;;;1.40;;
305;SDS011;137;48.578;9.180;2022-12-24T02:07:59;7.13;;;1.57;;
305;SDS011;137;48.578;9.180;2022-12-24T02:10:28;6.63;;;1.87;;
305;SDS011;137;48.578;9.180;2022-12-24T02:12:55;3.83;;;1.30;;
305;SDS011;137;48.578;9.180;2022-12-24T02:15:23;4.70;;;1.43;;
305;SDS011;137;48.578;9.180;2022-12-24T02:17:51;5.63;;;1.60;;
305;SDS011;137;48.578;9.180;2022-12-24T02:27:00;4.60;;;1.00;;
305;SDS011;137;48.578;9.180;2022-12-24T02:32:54;2.20;;;1.20;;
305;SDS011;137;48.578;9.180;2022-12-24T02:35:33;3.90;;;1.40;;
305;SDS011;137;48.578;9.180;2022-12-24T02:38:04;2.97;;;1.90;;
305;SDS011;137;48.578;9.180;2022-12-24T02:40:38;3.57;;;1.40;;
305;SDS011;137;48.578;9.180;2022-12-24T02:43:09;5.47;;;1.70;;
305;SDS011;137;48.578;9.180;2022-12-24T02:45:41;5.63;;;1.30;;
305;SDS011;137;48.578;9.180;2022-12-24T02:48:14;3.10;;;1.07;;
305;SDS011;137;48.578;9.180;2022-12-24T02:50:53;2.53;;;1.40;;
305;SDS011;137;48.578;9.180;2022-12-24T02:53:24;2.00;;;1.17;;
305;SDS011;137;48.578;9.180;2022-12-24T02:55:54;3.90;;;1.30;;
305;SDS011;137;48.578;9.180;2022-12-24T02:58:31;2.33;;;0.90;;
305;SDS011;137;48.578;9.180;2022-12-24T03:01:08;2.60;;;1.90;;
305;SDS011;137;48.578;9.180;2022-12-24T03:03:47;6.67;;;1.50;;
305;SDS011;137;48.578;9.180;2022-12-24T03:06:26;2.93;;;1.40;;
305;SDS011;137;48.578;9.180;2022-12-24T03:09:05;4.23;;;1.30;;
305;SDS011;137;48.578;9.180;2022-12-24T03:11:36;3.93;;;1.10;;
305;SDS011;137;48.578;9.180;2022-12-24T03:14:05;2.23;;;1.73;;
305;SDS011;137;48.578;9.180;2022-12-24T03:16:32;1.83;;;1.40;;
305;SDS011;137;48.578;9.180;2022-12-24T03:19:01;2.80;;;1.50;;
305;SDS011;137;48.578;9.180;2022-12-24T03:21:29;3.10;;;1.53;;
305;SDS011;137;48.578;9.180;2022-12-24T03:23:58;6.50;;;1.37;;
305;SDS011;137;48.578;9.180;2022-12-24T03:26:25;5.50;;;1.97;;
305;SDS011;137;48.578;9.180;2022-12-24T03:28:55;4.03;;;1.23;;
305;SDS011;137;48.578;9.180;2022-12-24T03:31:22;6.90;;;1.50;;
305;SDS011;137;48.578;9.180;2022-12-24T03:33:49;3.37;;;1.57;;
305;SDS011;137;48.578;9.180;2022-12-24T03:36:18;2.30;;;1.17;;
305;SDS011;137;48.578;9.180;2022-12-24T03:38:44;8.93;;;1.73;;
305;SDS011;137;48.578;9.180;2022-12-24T03:41:11;4.87;;;1.40;;
305;SDS011;137;48.578;9.180;2022-12-24T03:43:38;1.80;;;1.30;;
305;SDS011;137;48.578;9.180;2022-12-24T03:46:05;2.63;;;1.40;;
305;SDS011;137;48.578;9.180;2022-12-24T03:48:33;7.40;;;1.40;;
305;SDS011;137;48.578;9.180;2022-12-24T03:51:00;3.30;;;1.30;;
305;SDS011;137;48.578;9.180;2022-12-24T03:53:28;2.73;;;1.50;;
305;SDS011;137;48.578;9.180;2022-12-24T03:55:55;4.60;;;1.50;;
305;SDS011;137;48.578;9.180;2022-12-24T03:58:22;7.00;;;1.60;;
305;SDS011;137;48.578;9.180;2022-12-24T04:00:49;3.90;;;1.20;;
305;SDS011;137;48.578;9.180;2022-12-24T04:03:17;2.40;;;1.40;;
305;SDS011;137;48.578;9.180;2022-12-24T04:05:44;4.10;;;1.43;;
305;SDS011;137;48.578;9.180;2022-12-24T04:08:11;2.30;;;1.40;;
305;SDS011;137;48.578;9.180;2022-12-24T04:10:39;1.83;;;1.00;;
305;SDS011;137;48.578;9.180;2022-12-24T04:13:06;2.43;;;1.10;;
305;SDS011;137;48.578;9.180;2022-12-24T04:15:33;1.67;;;1.30;;
305;SDS011;137;48.578;9.180;2022-12-24T04:17:59;3.97;;;1.30;;
305;SDS011;137;48.578;9.180;2022-12-24T04:20:26;5.80;;;1.63;;
305;SDS011;137;48.578;9.180;2022-12-24T04:22:53;4.57;;;1.63;;
305;SDS011;137;48.578;9.180;2022-12-24T04:25:20;1.57;;;1.10;;
305;SDS011;137;48.578;9.180;2022-12-24T04:27:48;2.63;;;1.20;;
305;SDS011;137;48.578;9.180;2022-12-24T04:30:15;4.33;;;1.30;;
305;SDS011;137;48.578;9.180;2022-12-24T04:32:41;3.93;;;1.47;;
305;SDS011;137;48.578;9.180;2022-12-24T04:35:08;4.20;;;1.40;;
305;SDS011;137;48.578;9.180;2022-12-24T04:37:35;2.13;;;1.13;;
305;SDS011;137;48.578;9.180;2022-12-24T04:40:02;4.60;;;1.60;;
305;SDS011;137;48.578;9.180;2022-12-24T04:42:29;2.20;;;1.10;;
305;SDS011;137;48.578;9.180;2022-12-24T04:44:57;3.80;;;1.27;;
305;SDS011;137;48.578;9.180;2022-12-24T04:47:24;4.93;;;1.50;;
305;SDS011;137;48.578;9.180;2022-12-24T04:49:50;1.60;;;1.00;;
305;SDS011;137;48.578;9.180;2022-12-24T04:52:17;3.07;;;1.50;;
305;SDS011;137;48.578;9.180;2022-12-24T04:54:44;2.30;;;1.50;;
305;SDS011;137;48.578;9.180;2022-12-24T04:57:11;3.80;;;1.27;;
305;SDS011;137;48.578;9.180;2022-12-24T04:59:37;5.50;;;1.20;;
305;SDS011;137;48.578;9.180;2022-12-24T05:02:06;5.40;;;1.97;;
305;SDS011;137;48.578;9.180;2022-12-24T05:04:32;4.73;;;1.80;;
305;SDS011;137;48.578;9.180;2022-12-24T05:06:59;4.20;;;1.50;;
305;SDS011;137;48.578;9.180;2022-12-24T05:09:26;4.83;;;1.90;;
305;SDS011;137;48.578;9.180;2022-12-24T05:11:53;3.53;;;1.10;;
305;SDS011;137;48.578;9.180;2022-12-24T05:14:20;3.43;;;1.40;;
305;SDS011;137;48.578;9.180;2022-12-24T05:16:46;5.23;;;1.67;;
305;SDS011;137;48.578;9.180;2022-12-24T05:19:15;3.17;;;1.43;;
305;SDS011;137;48.578;9.180;2022-12-24T05:21:42;2.17;;;1.97;;
305;SDS011;137;48.578;9.180;2022-12-24T05:24:29;3.37;;;1.60;;
305;SDS011;137;48.578;9.180;2022-12-24T05:27:13;1.57;;;1.10;;
305;SDS011;137;48.578;9.180;2022-12-24T05:29:40;5.33;;;1.83;;
305;SDS011;137;48.578;9.180;2022-12-24T05:32:06;3.43;;;1.70;;
305;SDS011;137;48.578;9.180;2022-12-24T05:34:34;2.80;;;1.47;;
305;SDS011;137;48.578;9.180;2022-12-24T05:37:01;7.50;;;1.70;;
305;SDS011;137;48.578;9.180;2022-12-24T05:39:28;3.57;;;1.33;;
305;SDS011;137;48.578;9.180;2022-12-24T05:41:55;6.50;;;1.80;;
305;SDS011;137;48.578;9.180;2022-12-24T05:44:22;2.63;;;1.50;;
305;SDS011;137;48.578;9.180;2022-12-24T05:46:49;5.53;;;1.60;;
305;SDS011;137;48.578;9.180;2022-12-24T05:49:15;4.80;;;1.60;;
305;SDS011;137;48.578;9.180;2022-12-24T05:51:44;3.97;;;1.90;;
305;SDS011;137;48.578;9.180;2022-12-24T05:54:10;4.23;;;1.40;;
305;SDS011;137;48.578;9.180;2022-12-24T05:56:37;6.20;;;1.90;;
305;SDS011;137;48.578;9.180;2022-12-24T05:59:04;3.20;;;1.50;;
305;SDS011;137;48.578;9.180;2022-12-24T06:01:31;3.33;;;1.43;;
305;SDS011;137;48.578;9.180;2022-12-24T06:03:58;5.70;;;1.60;;
305;SDS011;137;48.578;9.180;2022-12-24T06:06:26;2.30;;;1.37;;
305;SDS011;137;48.578;9.180;2022-12-24T06:08:55;3.50;;;1.40;;
305;SDS011;137;48.578;9.180;2022-12-24T06:11:22;2.47;;;1.10;;
305;SDS011;137;48.578;9.180;2022-12-24T06:13:50;2.37;;;1.27;;
305;SDS011;137;48.578;9.180;2022-12-24T06:16:18;2.77;;;1.60;;
305;SDS011;137;48.578;9.180;2022-12-24T06:18:46;2.10;;;1.90;;
305;SDS011;137;48.578;9.180;2022-12-24T06:21:13;3.50;;;1.93;;
305;SDS011;137;48.578;9.180;2022-12-24T06:23:41;5.27;;;1.47;;
305;SDS011;137;48.578;9.180;2022-12-24T06:26:11;4.77;;;1.90;;
305;SDS011;137;48.578;9.180;2022-12-24T06:28:39;4.63;;;2.27;;
305;SDS011;137;48.578;9.180;2022-12-24T06:31:08;5.90;;;1.43;;
305;SDS011;137;48.578;9.180;2022-12-24T06:33:37;2.80;;;1.70;;
305;SDS011;137;48.578;9.180;2022-12-24T06:36:05;4.37;;;1.67;;
305;SDS011;137;48.578;9.180;2022-12-24T06:38:32;3.30;;;1.83;;
305;SDS011;137;48.578;9.180;2022-12-24T06:40:59;5.37;;;1.93;;
305;SDS011;137;48.578;9.180;2022-12-24T06:43:31;5.10;;;1.60;;
305;SDS011;137;48.578;9.180;2022-12-24T06:46:00;7.10;;;1.73;;
305;SDS011;137;48.578;9.180;2022-12-24T06:48:27;4.57;;;1.67;;
305;SDS011;137;48.578;9.180;2022-12-24T06:50:54;4.10;;;1.30;;
305;SDS011;137;48.578;9.180;2022-12-24T06:53:20;2.33;;;1.60;;
305;SDS011;137;48.578;9.180;2022-12-24T06:55:48;4.20;;;1.67;;
305;SDS011;137;48.578;9.180;2022-12-24T06:58:15;3.00;;;1.30;;
305;SDS011;137;48.578;9.180;2022-12-24T07:00:43;3.43;;;1.37;;
305;SDS011;137;48.578;9.180;2022-12-24T07:03:10;4.10;;;1.90;;
305;SDS011;137;48.578;9.180;2022-12-24T07:05:37;4.37;;;2.00;;
305;SDS011;137;48.578;9.180;2022-12-24T07:08:05;6.43;;;1.33;;
305;SDS011;137;48.578;9.180;2022-12-24T07:10:33;8.63;;;2.23;;
305;SDS011;137;48.578;9.180;2022-12-24T07:13:00;4.00;;;1.60;;
305;SDS011;137;48.578;9.180;2022-12-24T07:15:27;3.20;;;1.40;;
305;SDS011;137;48.578;9.180;2022-12-24T07:17:55;8.73;;;2.03;;
305;SDS011;137;48.578;9.180;2022-12-24T07:20:22;7.20;;;3.13;;
305;SDS011;137;48.578;9.180;2022-12-24T07:22:48;4.57;;;1.87;;
305;SDS011;137;48.578;9.180;2022-12-24T07:25:15;2.67;;;1.90;;
305;SDS011;137;48.578;9.180;2022-12-24T07:27:42;4.20;;;2.10;;
305;SDS011;137;48.578;9.180;2022-12-24T07:30:09;6.00;;;1.90;;
305;SDS011;137;48.578;9.180;2022-12-24T07:32:37;8.00;;;1.63;;
305;SDS011;137;48.578;9.180;2022-12-24T07:35:05;3.93;;;1.80;;
305;SDS011;137;48.578;9.180;2022-12-24T07:37:33;3.40;;;1.73;;
305;SDS011;137;48.578;9.180;2022-12-24T07:39:59;4.20;;;1.50;;
305;SDS011;137;48.578;9.180;2022-12-24T07:42:26;5.10;;;1.57;;
305;SDS011;137;48.578;9.180;2022-12-24T07:44:53;5.93;;;2.70;;
305;SDS011;137;48.578;9.180;2022-12-24T07:47:20;6.73;;;2.50;;
305;SDS011;137;48.578;9.180;2022-12-24T07:49:47;4.87;;;1.93;;
305;SDS011;137;48.578;9.180;2022-12-24T07:52:15;2.93;;;1.67;;
305;SDS011;137;48.578;9.180;2022-12-24T07:54:42;3.47;;;1.77;;
305;SDS011;137;48.578;9.180;2022-12-24T07:57:08;6.33;;;1.73;;
305;SDS011;137;48.578;9.180;2022-12-24T07:59:35;8.90;;;3.13;;
305;SDS011;137;48.578;9.180;2022-12-24T08:02:02;5.77;;;1.90;;
305;SDS011;137;48.578;9.180;2022-12-24T08:04:32;4.90;;;1.57;;
305;SDS011;137;48.578;9.180;2022-12-24T08:07:00;4.17;;;2.23;;
305;SDS011;137;48.578;9.180;2022-12-24T08:09:31;4.20;;;2.00;;
305;SDS011;137;48.578;9.180;2022-12-24T08:11:58;4.10;;;2.03;;
305;SDS011;137;48.578;9.180;2022-12-24T08:14:26;8.37;;;3.10;;
305;SDS011;137;48.578;9.180;2022-12-24T08:16:53;6.40;;;2.23;;
305;SDS011;137;48.578;9.180;2022-12-24T08:19:20;3.63;;;1.80;;
305;SDS011;137;48.578;9.180;2022-12-24T08:21:47;7.70;;;2.27;;
305;SDS011;137;48.578;9.180;2022-12-24T08:24:14;6.83;;;2.17;;
305;SDS011;137;48.578;9.180;2022-12-24T08:26:42;8.30;;;2.13;;
305;SDS011;137;48.578;9.180;2022-12-24T08:29:09;7.10;;;2.33;;
305;SDS011;137;48.578;9.180;2022-12-24T08:31:36;7.37;;;2.57;;
305;SDS011;137;48.578;9.180;2022-12-24T08:34:03;4.93;;;2.20;;
305;SDS011;137;48.578;9.180;2022-12-24T08:36:30;9.60;;;2.30;;
305;SDS011;137;48.578;9.180;2022-12-24T08:38:57;5.17;;;2.03;;
305;SDS011;137;48.578;9.180;2022-12-24T08:41:27;7.87;;;2.37;;
305;SDS011;137;48.578;9.180;2022-12-24T08:43:56;5.70;;;2.90;;
305;SDS011;137;48.578;9.180;2022-12-24T08:46:23;14.63;;;7.20;;
305;SDS011;137;48.578;9.180;2022-12-24T08:48:49;15.33;;;8.30;;
305;SDS011;137;48.578;9.180;2022-12-24T08:51:16;12.00;;;4.20;;
305;SDS011;137;48.578;9.180;2022-12-24T08:53:43;10.13;;;4.10;;
305;SDS011;137;48.578;9.180;2022-12-24T08:56:10;7.90;;;2.97;;
305;SDS011;137;48.578;9.180;2022-12-24T08:58:38;7.63;;;3.53;;
305;SDS011;137;48.578;9.180;2022-12-24T09:01:10;5.00;;;2.53;;
305;SDS011;137;48.578;9.180;2022-12-24T09:03:38;10.43;;;2.80;;
305;SDS011;137;48.578;9.180;2022-12-24T09:06:05;6.40;;;2.70;;
305;SDS011;137;48.578;9.180;2022-12-24T09:08:33;4.57;;;2.27;;
305;SDS011;137;48.578;9.180;2022-12-24T09:11:04;5.53;;;2.97;;
305;SDS011;137;48.578;9.180;2022-12-24T09:13:31;6.77;;;2.60;;
305;SDS011;137;48.578;9.180;2022-12-24T09:15:58;8.50;;;3.20;;
305;SDS011;137;48.578;9.180;2022-12-24T09:18:26;7.37;;;3.27;;
305;SDS011;137;48.578;9.180;2022-12-24T09:20:57;9.17;;;3.17;;
305;SDS011;137;48.578;9.180;2022-12-24T09:23:25;6.73;;;3.80;;
305;SDS011;137;48.578;9.180;2022-12-24T09:25:52;8.13;;;2.17;;
305;SDS011;137;48.578;9.180;2022-12-24T09:28:19;3.90;;;2.10;;
305;SDS011;137;48.578;9.180;2022-12-24T09:30:53;8.13;;;2.30;;
305;SDS011;137;48.578;9.180;2022-12-24T09:33:21;6.90;;;2.43;;
305;SDS011;137;48.578;9.180;2022-12-24T09:35:50;7.70;;;2.30;;
305;SDS011;137;48.578;9.180;2022-12-24T09:38:17;6.00;;;1.73;;
305;SDS011;137;48.578;9.180;2022-12-24T09:40:44;5.40;;;2.10;;
305;SDS011;137;48.578;9.180;2022-12-24T09:43:13;6.50;;;2.00;;
305;SDS011;137;48.578;9.180;2022-12-24T09:45:44;3.97;;;1.77;;
305;SDS011;137;48.578;9.180;2022-12-24T09:48:15;6.67;;;2.00;;
305;SDS011;137;48.578;9.180;2022-12-24T09:50:47;3.70;;;2.40;;
305;SDS011;137;48.578;9.180;2022-12-24T09:53:19;5.97;;;1.90;;
305;SDS011;137;48.578;9.180;2022-12-24T09:55:52;5.97;;;2.30;;
305;SDS011;137;48.578;9.180;2022-12-24T09:58:24;6.17;;;2.17;;
305;SDS011;137;48.578;9.180;2022-12-24T10:00:55;6.03;;;2.53;;
305;SDS011;137;48.578;9.180;2022-12-24T10:03:22;5.87;;;1.57;;
305;SDS011;137;48.578;9.180;2022-12-24T10:05:53;6.60;;;2.60;;
305;SDS011;137;48.578;9.180;2022-12-24T10:08:27;4.83;;;2.50;;
305;SDS011;137;48.578;9.180;2022-12-24T10:11:02;4.20;;;2.40;;
305;SDS011;137;48.578;9.180;2022-12-24T10:13:38;6.87;;;2.00;;
305;SDS011;137;48.578;9.180;2022-12-24T10:16:14;3.80;;;1.67;;
305;SDS011;137;48.578;9.180;2022-12-24T10:18:48;6.40;;;2.43;;
305;SDS011;137;48.578;9.180;2022-12-24T10:21:25;5.10;;;2.40;;
305;SDS011;137;48.578;9.180;2022-12-24T10:24:02;5.97;;;2.30;;
305;SDS011;137;48.578;9.180;2022-12-24T10:26:34;6.70;;;2.00;;
305;SDS011;137;48.578;9.180;2022-12-24T10:29:09;6.23;;;1.87;;
305;SDS011;137;48.578;9.180;2022-12-24T10:31:41;3.83;;;1.97;;
305;SDS011;137;48.578;9.180;2022-12-24T10:34:16;6.87;;;1.63;;
305;SDS011;137;48.578;9.180;2022-12-24T10:36:48;5.07;;;2.53;;
305;SDS011;137;48.578;9.180;2022-12-24T10:39:16;5.60;;;3.20;;
305;SDS011;137;48.578;9.180;2022-12-24T10:41:45;9.73;;;2.10;;
305;SDS011;137;48.578;9.180;2022-12-24T10:44:15;5.47;;;1.80;;
305;SDS011;137;48.578;9.180;2022-12-24T10:46:46;5.87;;;1.73;;
305;SDS011;137;48.578;9.180;2022-12-24T10:49:14;8.70;;;4.03;;
305;SDS011;137;48.578;9.180;2022-12-24T10:51:44;7.83;;;2.00;;
305;SDS011;137;48.578;9.180;2022-12-24T10:54:17;11.77;;;2.80;;
305;SDS011;137;48.578;9.180;2022-12-24T10:56:46;4.60;;;1.90;;
305;SDS011;137;48.578;9.180;2022-12-24T10:59:21;7.73;;;2.30;;
305;SDS011;137;48.578;9.180;2022-12-24T11:01:50;5.60;;;2.13;;
305;SDS011;137;48.578;9.180;2022-12-24T11:04:18;5.07;;;2.20;;
305;SDS011;137;48.578;9.180;2022-12-24T11:06:56;7.53;;;2.00;;
305;SDS011;137;48.578;9.180;2022-12-24T11:09:26;3.93;;;1.73;;
305;SDS011;137;48.578;9.180;2022-12-24T11:11:55;5.40;;;2.30;;
305;SDS011;137;48.578;9.180;2022-12-24T11:14:22;6.73;;;2.20;;
305;SDS011;137;48.578;9.180;2022-12-24T11:16:51;3.07;;;1.77;;
305;SDS011;137;48.578;9.180;2022-12-24T11:19:24;7.53;;;2.30;;
305;SDS011;137;48.578;9.180;2022-12-24T11:22:00;9.00;;;2.63;;
305;SDS011;137;48.578;9.180;2022-12-24T11:24:31;6.03;;;1.80;;
305;SDS011;137;48.578;9.180;2022-12-24T11:30:12;7.60;;;2.53;;
305;SDS011;137;48.578;9.180;2022-12-24T11:33:10;4.93;;;2.03;;
305;SDS011;137;48.578;9.180;2022-12-24T11:35:45;4.70;;;1.80;;
305;SDS011;137;48.578;9.180;2022-12-24T11:38:16;3.03;;;1.80;;
305;SDS011;137;48.578;9.180;2022-12-24T11:40:48;8.57;;;2.17;;
305;SDS011;137;48.578;9.180;2022-12-24T11:43:21;3.67;;;2.10;;
305;SDS011;137;48.578;9.180;2022-12-24T11:45:49;3.10;;;1.50;;
305;SDS011;137;48.578;9.180;2022-12-24T11:48:25;7.80;;;2.20;;
305;SDS011;137;48.578;9.180;2022-12-24T11:50:57;8.27;;;1.70;;
305;SDS011;137;48.578;9.180;2022-12-24T11:53:26;5.20;;;1.70;;
305;SDS011;137;48.578;9.180;2022-12-24T11:56:01;5.50;;;1.80;;
305;SDS011;137;48.578;9.180;2022-12-24T11:58:36;6.90;;;2.13;;
305;SDS011;137;48.578;9.180;2022-12-24T12:01:12;6.50;;;2.00;;
305;SDS011;137;48.578;9.180;2022-12-24T12:03:43;4.50;;;2.20;;
305;SDS011;137;48.578;9.180;2022-12-24T12:06:16;5.20;;;2.27;;
305;SDS011;137;48.578;9.180;2022-12-24T12:08:54;5.27;;;2.10;;
305;SDS011;137;48.578;9.180;2022-12-24T12:11:24;6.17;;;2.13;;
305;SDS011;137;48.578;9.180;2022-12-24T12:13:53;3.50;;;1.83;;
305;SDS011;137;48.578;9.180;2022-12-24T12:16:24;9.33;;;1.97;;
305;SDS011;137;48.578;9.180;2022-12-24T12:19:16;10.80;;;2.50;;
305;SDS011;137;48.578;9.180;2022-12-24T12:21:46;5.77;;;2.10;;
305;SDS011;137;48.578;9.180;2022-12-24T12:24:18;4.57;;;2.00;;
305;SDS011;137;48.578;9.180;2022-12-24T12:26:53;3.40;;;1.83;;
305;SDS011;137;48.578;9.180;2022-12-24T12:29:26;6.27;;;2.47;;
305;SDS011;137;48.578;9.180;2022-12-24T12:31:58;5.03;;;1.63;;
305;SDS011;137;48.578;9.180;2022-12-24T12:34:30;10.73;;;2.60;;
305;SDS011;137;48.578;9.180;2022-12-24T12:37:00;7.27;;;2.13;;
305;SDS011;137;48.578;9.180;2022-12-24T12:39:32;4.90;;;1.77;;
305;SDS011;137;48.578;9.180;2022-12-24T12:42:03;5.20;;;2.13;;
305;SDS011;137;48.578;9.180;2022-12-24T12:44:55;6.20;;;2.33;;
305;SDS011;137;48.578;9.180;2022-12-24T12:47:44;7.73;;;3.20;;
305;SDS011;137;48.578;9.180;2022-12-24T12:50:24;6.73;;;1.83;;
305;SDS011;137;48.578;9.180;2022-12-24T12:53:15;6.87;;;1.77;;
305;SDS011;137;48.578;9.180;2022-12-24T12:55:55;4.10;;;1.90;;
305;SDS011;137;48.578;9.180;2022-12-24T12:58:32;10.53;;;2.43;;
305;SDS011;137;48.578;9.180;2022-12-24T13:01:04;4.93;;;2.03;;
305;SDS011;137;48.578;9.180;2022-12-24T13:03:45;7.43;;;2.37;;
305;SDS011;137;48.578;9.180;2022-12-24T13:06:37;4.57;;;1.63;;
305;SDS011;137;48.578;9.180;2022-12-24T13:09:27;3.50;;;2.03;;
305;SDS011;137;48.578;9.180;2022-12-24T13:12:21;7.83;;;2.20;;
305;SDS011;137;48.578;9.180;2022-12-24T13:15:09;5.37;;;1.70;;
305;SDS011;137;48.578;9.180;2022-12-24T13:17:56;7.30;;;1.70;;
305;SDS011;137;48.578;9.180;2022-12-24T13:20:37;7.70;;;1.87;;
305;SDS011;137;48.578;9.180;2022-12-24T13:23:10;6.23;;;1.80;;
305;SDS011;137;48.578;9.180;2022-12-24T13:25:39;10.33;;;2.93;;
305;SDS011;137;48.578;9.180;2022-12-24T13:28:14;5.33;;;1.70;;
305;SDS011;137;48.578;9.180;2022-12-24T13:30:43;5.37;;;1.77;;
305;SDS011;137;48.578;9.180;2022-12-24T13:33:10;3.17;;;1.60;;
305;SDS011;137;48.578;9.180;2022-12-24T13:44:22;8.77;;;2.83;;
305;SDS011;137;48.578;9.180;2022-12-24T13:47:02;4.60;;;1.93;;
305;SDS011;137;48.578;9.180;2022-12-24T13:49:47;8.70;;;2.10;;
305;SDS011;137;48.578;9.180;2022-12-24T13:52:17;7.90;;;2.03;;
305;SDS011;137;48.578;9.180;2022-12-24T13:55:04;7.87;;;2.17;;
305;SDS011;137;48.578;9.180;2022-12-24T13:57:38;7.00;;;2.50;;
305;SDS011;137;48.578;9.180;2022-12-24T14:00:22;3.40;;;1.37;;
305;SDS011;137;48.578;9.180;2022-12-24T14:03:06;16.47;;;2.70;;
305;SDS011;137;48.578;9.180;2022-12-24T14:05:59;6.57;;;2.30;;
305;SDS011;137;48.578;9.180;2022-12-24T14:08:32;4.13;;;2.00;;
305;SDS011;137;48.578;9.180;2022-12-24T14:11:03;3.87;;;2.03;;
305;SDS011;137;48.578;9.180;2022-12-24T14:13:52;7.97;;;2.00;;
305;SDS011;137;48.578;9.180;2022-12-24T14:16:40;4.17;;;2.43;;
305;SDS011;137;48.578;9.180;2022-12-24T14:19:15;6.63;;;2.50;;
305;SDS011;137;48.578;9.180;2022-12-24T14:21:48;5.37;;;3.00;;
305;SDS011;137;48.578;9.180;2022-12-24T14:24:23;8.80;;;2.03;;
305;SDS011;137;48.578;9.180;2022-12-24T14:26:53;3.40;;;1.93;;
305;SDS011;137;48.578;9.180;2022-12-24T14:29:24;4.43;;;1.83;;
305;SDS011;137;48.578;9.180;2022-12-24T14:31:54;5.53;;;1.97;;
305;SDS011;137;48.578;9.180;2022-12-24T14:34:24;5.43;;;2.13;;
305;SDS011;137;48.578;9.180;2022-12-24T14:36:52;6.43;;;2.30;;
305;SDS011;137;48.578;9.180;2022-12-24T14:39:22;6.30;;;1.70;;
305;SDS011;137;48.578;9.180;2022-12-24T14:41:53;4.30;;;2.30;;
305;SDS011;137;48.578;9.180;2022-12-24T14:44:27;9.67;;;2.17;;
305;SDS011;137;48.578;9.180;2022-12-24T14:47:05;3.97;;;1.53;;
305;SDS011;137;48.578;9.180;2022-12-24T14:49:47;4.70;;;2.10;;
305;SDS011;137;48.578;9.180;2022-12-24T14:52:27;6.37;;;1.70;;
305;SDS011;137;48.578;9.180;2022-12-24T14:54:59;4.70;;;1.83;;
305;SDS011;137;48.578;9.180;2022-12-24T14:57:46;4.03;;;1.67;;
305;SDS011;137;48.578;9.180;2022-12-24T15:00:17;5.17;;;1.90;;
305;SDS011;137;48.578;9.180;2022-12-24T15:02:45;4.30;;;1.90;;
305;SDS011;137;48.578;9.180;2022-12-24T15:05:15;4.93;;;2.10;;
305;SDS011;137;48.578;9.180;2022-12-24T15:07:44;6.00;;;1.93;;
305;SDS011;137;48.578;9.180;2022-12-24T15:10:21;4.07;;;2.03;;
305;SDS011;137;48.578;9.180;2022-12-24T15:12:55;6.13;;;2.77;;
305;SDS011;137;48.578;9.180;2022-12-24T15:15:26;7.47;;;2.50;;
305;SDS011;137;48.578;9.180;2022-12-24T15:17:53;6.37;;;2.03;;
305;SDS011;137;48.578;9.180;2022-12-24T15:20:23;8.40;;;2.80;;
305;SDS011;137;48.578;9.180;2022-12-24T15:22:53;6.40;;;2.20;;
305;SDS011;137;48.578;9.180;2022-12-24T15:25:23;7.47;;;2.60;;
305;SDS011;137;48.578;9.180;2022-12-24T15:27:51;7.17;;;2.97;;
305;SDS011;137;48.578;9.180;2022-12-24T15:30:18;8.90;;;3.27;;
305;SDS011;137;48.578;9.180;2022-12-24T15:32:46;9.30;;;3.70;;
305;SDS011;137;48.578;9.180;2022-12-24T15:35:42;6.60;;;3.07;;
305;SDS011;137;48.578;9.180;2022-12-24T15:38:20;11.77;;;4.70;;
305;SDS011;137;48.578;9.180;2022-12-24T15:40:50;5.73;;;3.20;;
305;SDS011;137;48.578;9.180;2022-12-24T15:43:18;9.90;;;3.23;;
305;SDS011;137;48.578;9.180;2022-12-24T15:45:45;4.90;;;2.70;;
305;SDS011;137;48.578;9.180;2022-12-24T15:48:15;5.87;;;3.57;;
305;SDS011;137;48.578;9.180;2022-12-24T15:50:49;10.30;;;3.30;;
305;SDS011;137;48.578;9.180;2022-12-24T15:53:20;7.37;;;4.97;;
305;SDS011;137;48.578;9.180;2022-12-24T15:58:35;9.13;;;3.70;;
305;SDS011;137;48.578;9.180;2022-12-24T16:01:05;7.87;;;4.33;;
305;SDS011;137;48.578;9.180;2022-12-24T16:03:53;9.43;;;4.67;;
305;SDS011;137;48.578;9.180;2022-12-24T16:06:24;6.20;;;4.47;;
305;SDS011;137;48.578;9.180;2022-12-24T16:08:52;10.03;;;5.70;;
305;SDS011;137;48.578;9.180;2022-12-24T16:11:32;8.07;;;4.67;;
305;SDS011;137;48.578;9.180;2022-12-24T16:14:03;7.43;;;4.80;;
305;SDS011;137;48.578;9.180;2022-12-24T16:16:36;7.47;;;5.37;;
305;SDS011;137;48.578;9.180;2022-12-24T16:19:14;7.50;;;5.80;;
305;SDS011;137;48.578;9.180;2022-12-24T16:21:44;8.63;;;5.30;;
305;SDS011;137;48.578;9.180;2022-12-24T16:24:16;13.67;;;5.40;;
305;SDS011;137;48.578;9.180;2022-12-24T16:26:45;10.43;;;6.00;;
305;SDS011;137;48.578;9.180;2022-12-24T16:29:12;7.93;;;5.33;;
305;SDS011;137;48.578;9.180;2022-12-24T16:31:42;10.00;;;4.80;;
305;SDS011;137;48.578;9.180;2022-12-24T16:34:11;7.63;;;5.50;;